Terminal Aerodrome Forecast
Issued by NWS Milwaukee/Sullivan, WI

Home | Current Version | Previous Version | Text Only | Print | Product List | Glossary On
Versions: 1 2 3 4 5 6 7 8 9 10 11 12 13 14 15 16 17 18 19 20 21 22 23 24 25 26 27 28 29 30 31 32 33 34 35 36 37 38 39 40 41 42 43 44 45 46 47 48 49 50
511
FTUS43 KMKX 271240 AAB
TAFMSN
TAF AMD
KMSN 271240Z 2713/2812 10006KT 5SM SHRA BR VCTS BKN006 OVC025CB
     FM271600 13006KT 6SM SHRA VCTS SCT015 OVC020CB
     FM271800 18006KT P6SM VCTS BKN025CB
     FM272000 23006KT P6SM SCT015 OVC030
     FM272200 26006KT P6SM SCT025 BKN035
     FM280100 28004KT P6SM BKN050
     FM280500 00000KT 5SM BR BKN070
     FM280700 00000KT 2SM BR SCT035=

USA.gov is the U.S. government's official web portal to all federal, state and local government web resources and services.